Aeroporto :
LOGIN :

Iscrizione | Disclaimer

   EN    FR    IT 

 










Sommario :    VFR   VFR Marginale   IFR   IFR Intensivo   IFR Molto Intensivo
Visibilità : 
Base nubi : 
>= 8 km
>= 3000ft
5 / 8 km
1000 / 3000 ft
1500m / 5 km
500 / 1000 ft
800 / 1500m
200 / 500 ft
< 800m
< 200 ft
Simboli :   Temporali  Nebbia  Neve Forte  Precipitazioni Forti  Vento > 20 kt
SIGMETs :   Varie  Temporali  Ghiacco  Turbolenza  Onda orograficha  Ceneri Vulcaniche






- Altitudine del aeroporto : 18 ft
- Codice IATA : KVA


LGKV - Megas Alexandros

ULTIMO METAR :
  • 240620Z 06004KT CAVOK 05/03 Q1023

METARs OBSOLETI :
  • 240550Z 06004KT CAVOK 04/02 Q1023
  • 240520Z 06003KT CAVOK 03/01 Q1023
  • 240450Z 06003KT CAVOK 03/01 Q1023

TAF TAF LGKV
Valido dal 24 a 06 ore il 25 a 06 ore UTC


240500Z 2406/2506 06010KT 9999 FEW025
BECMG 2414/2416 06010G20KT SCT025 BKN080
BECMG 2500/2502 FEW025



MetMap, La meteo Aeronautica in un colpo d'occhio ! - Copyright ORBIFLY Dicembre 2007 - Disclaimer

ORBIFLY MET'MAP TEAM :

Programmazione e sviluppo : Alexandra Zaïnal
Concezione : Baudouin d'Aumeries
Aiuto per la programmazione : Marc-Olivier Méhu
Supporto tecnico e logistico : Manuel Goepfert
Aiuto per la traduzione : Arnaldo La Scala

Contatto : metmap@orbifly.com




FONTI E CREDITI :

   NOAA